Time;durP1;ratioP1;P1;durP2;ratioP2;P2;SDS_P1;SDS_P2;PMS_P1;PMS_P2;Temp;Humidity;BMP_temperature;BMP_pressure;BME280_temperature;BME280_humidity;BME280_pressure;Samples;Min_cycle;Max_cycle;Signal;HPM_P1;HPM_P2
2023/04/29 00:01:06;;;;;;;47.20;29.75;;;8.80;99.90;;;;;;4855270;29;20089;-96
2023/04/29 00:08:11;;;;;;;;;;;;;;;;;;;;;
2023/04/29 00:11:50;;;;;;;58.22;31.08;;;8.80;99.90;;;;;;4820492;29;20108;-96
2023/04/29 00:15:34;;;;;;;;;;;;;;;;;;;;;
2023/04/29 00:19:42;;;;;;;51.35;28.95;;;8.50;99.90;;;;;;4819200;29;20061;-96
2023/04/29 00:28:58;;;;;;;54.70;27.48;;;8.70;99.90;;;;;;4898938;23;20060;-96
2023/04/29 00:31:28;;;;;;;58.22;29.63;;;8.70;99.90;;;;;;4846534;29;20048;-96
2023/04/29 00:34:03;;;;;;;58.40;28.08;;;8.50;99.90;;;;;;4875958;29;20038;-96
2023/04/29 00:36:59;;;;;;;59.67;29.33;;;8.30;99.90;;;;;;4854803;29;20052;-96
2023/04/29 00:40:04;;;;;;;49.88;26.75;;;8.60;99.90;;;;;;4890623;29;20059;-96
2023/04/29 00:42:33;;;;;;;45.63;23.83;;;8.70;99.90;;;;;;4883660;29;20067;-96
2023/04/29 00:45:27;;;;;;;48.50;24.42;;;8.60;99.90;;;;;;4884240;29;20057;-96
2023/04/29 00:47:56;;;;;;;41.85;24.00;;;8.20;99.90;;;;;;4839652;29;20072;-96
2023/04/29 00:50:33;;;;;;;42.30;23.38;;;8.50;99.90;;;;;;4862638;29;20049;-96
2023/04/29 00:53:23;;;;;;;42.00;23.13;;;8.60;99.90;;;;;;4863379;29;20045;-96
2023/04/29 00:55:54;;;;;;;44.97;23.85;;;8.00;99.90;;;;;;4863855;29;20061;-96
2023/04/29 00:58:38;;;;;;;44.60;22.42;;;8.50;99.90;;;;;;4899253;29;20143;-96
2023/04/29 01:01:05;;;;;;;45.80;22.67;;;8.50;99.90;;;;;;4874918;29;20108;-96
2023/04/29 01:03:31;;;;;;;50.80;24.52;;;8.30;99.90;;;;;;4867668;29;20048;-96
2023/04/29 01:06:12;;;;;;;44.30;22.98;;;8.40;99.90;;;;;;4871736;29;20045;-96
2023/04/29 01:08:46;;;;;;;43.05;22.05;;;8.20;99.90;;;;;;4875298;29;20053;-96
2023/04/29 01:11:15;;;;;;;42.13;21.27;;;8.40;99.90;;;;;;4860581;29;20052;-96
2023/04/29 01:13:49;;;;;;;43.45;23.13;;;8.40;99.90;;;;;;4868643;29;20048;-96
2023/04/29 01:16:50;;;;;;;44.78;22.80;;;8.40;99.90;;;;;;4880761;29;20064;-96
2023/04/29 01:19:31;;;;;;;41.67;21.67;;;8.40;99.90;;;;;;4852635;29;20053;-96
2023/04/29 01:21:59;;;;;;;34.00;21.67;;;8.40;99.90;;;;;;4858227;29;20049;-96
2023/04/29 01:24:28;;;;;;;44.15;22.40;;;8.40;99.90;;;;;;4870804;29;20051;-96
2023/04/29 01:27:01;;;;;;;43.38;23.77;;;8.40;99.90;;;;;;4875713;29;20056;-96
2023/04/29 01:29:43;;;;;;;45.63;23.33;;;8.40;99.90;;;;;;4868823;29;20055;-96
2023/04/29 01:32:56;;;;;;;41.10;23.30;;;8.40;99.90;;;;;;4849729;29;20087;-96
2023/04/29 01:41:32;;;;;;;;;;;;;;;;;;;;;
2023/04/29 01:48:03;;;;;;;49.22;23.95;;;8.10;99.90;;;;;;4858473;29;20410;-96
2023/04/29 01:51:44;;;;;;;38.67;22.98;;;8.10;99.90;;;;;;4828036;29;20050;-96
2023/04/29 01:54:59;;;;;;;45.15;24.25;;;7.90;99.90;;;;;;4818931;29;20233;-96
2023/04/29 02:02:19;;;;;;;;;;;;;;;;;;;;;
2023/04/29 02:05:31;;;;;;;51.13;24.70;;;7.70;99.90;;;;;;4807358;29;20093;-96
2023/04/29 02:19:31;;;;;;;51.20;26.52;;;7.50;99.90;;;;;;4810268;29;20078;-96
2023/04/29 02:23:19;;;;;;;;;;;;;;;;;;;;;
2023/04/29 02:25:58;;;;;;;45.80;24.95;;;7.50;99.90;;;;;;4846968;29;20128;-96
2023/04/29 02:29:37;;;;;;;45.45;24.30;;;7.50;99.90;;;;;;4844315;29;20422;-96
2023/04/29 02:33:04;;;;;;;57.57;25.23;;;7.60;99.90;;;;;;4823052;29;20061;-96
2023/04/29 02:36:39;;;;;;;48.13;23.33;;;7.30;99.90;;;;;;4848948;29;20052;-96
2023/04/29 02:50:20;;;;;;;;;;;;;;;;;;;;;
2023/04/29 02:53:58;;;;;;;47.72;25.48;;;7.80;99.90;;;;;;4822521;29;19932;-96
2023/04/29 02:57:25;;;;;;;48.67;25.85;;;7.70;99.90;;;;;;4791973;29;20095;-96
2023/04/29 03:04:16;;;;;;;47.53;23.23;;;7.80;99.90;;;;;;4860310;29;20085;-96
2023/04/29 03:11:35;;;;;;;41.47;21.65;;;7.90;99.90;;;;;;4850011;29;20411;-96
2023/04/29 03:15:05;;;;;;;43.00;20.63;;;8.30;99.90;;;;;;4856544;29;20120;-96
2023/04/29 03:25:35;;;;;;;;;;;;;;;;;;;;;
2023/04/29 03:28:57;;;;;;;36.38;17.55;;;7.80;99.90;;;;;;4846171;29;20101;-96
2023/04/29 03:32:44;;;;;;;34.47;16.05;;;7.70;99.90;;;;;;4862550;29;20121;-96
2023/04/29 03:35:36;;;;;;;35.08;16.65;;;7.60;99.90;;;;;;4801065;29;20540;-96
2023/04/29 03:39:03;;;;;;;35.33;15.90;;;8.10;99.90;;;;;;4834411;29;20045;-95
2023/04/29 03:41:46;;;;;;;32.08;16.52;;;8.50;99.90;;;;;;4859274;29;20049;-96
2023/04/29 03:48:57;;;;;;;27.67;14.25;;;8.20;99.90;;;;;;4858343;29;20072;-96
2023/04/29 03:51:54;;;;;;;;;;;;;;;;;;;;;
2023/04/29 04:01:25;;;;;;;32.42;14.43;;;8.20;99.90;;;;;;4822062;29;20054;-96
2023/04/29 04:08:03;;;;;;;;;;;;;;;;;;;;;
2023/04/29 04:18:25;;;;;;;26.85;14.05;;;8.20;99.90;;;;;;4804691;29;20164;-96
2023/04/29 04:31:51;;;;;;;31.02;15.60;;;8.10;99.90;;;;;;4829828;29;20057;-95
2023/04/29 04:34:42;;;;;;;;;;;;;;;;;;;;;
2023/04/29 04:38:02;;;;;;;27.88;15.82;;;7.60;99.90;;;;;;4861021;29;20038;-96
2023/04/29 04:41:05;;;;;;;;;;;7.90;99.90;;;;;;4834500;29;20093;-96
2023/04/29 04:47:16;;;;;;;29.65;16.02;;;8.20;99.90;;;;;;4843476;29;20125;-95
2023/04/29 04:50:55;;;;;;;24.63;15.70;;;8.30;99.90;;;;;;4812363;29;20057;-95
2023/04/29 04:53:51;;;;;;;27.60;16.02;;;8.30;99.90;;;;;;4814463;29;20327;-96
2023/04/29 04:56:40;;;;;;;24.35;14.13;;;8.30;99.90;;;;;;4816929;29;20407;-96
2023/04/29 04:59:51;;;;;;;26.27;14.77;;;8.30;99.90;;;;;;4800530;29;20487;-95
2023/04/29 05:06:19;;;;;;;26.90;14.77;;;8.30;99.90;;;;;;4820431;29;20092;-96
2023/04/29 05:09:52;;;;;;;36.05;16.10;;;8.30;99.90;;;;;;4823165;29;20049;-96
2023/04/29 05:13:24;;;;;;;32.85;15.30;;;8.40;99.90;;;;;;4795103;29;20058;-96
2023/04/29 05:16:21;;;;;;;28.63;14.95;;;8.40;99.90;;;;;;4770488;29;20057;-95
2023/04/29 05:22:35;;;;;;;26.67;14.43;;;8.40;99.90;;;;;;4807892;29;20049;-95
2023/04/29 05:26:14;;;;;;;30.65;16.13;;;8.50;99.90;;;;;;4801964;29;20042;-96
2023/04/29 05:29:09;;;;;;;24.70;15.30;;;8.40;99.90;;;;;;4850870;29;20049;-96
2023/04/29 05:32:28;;;;;;;27.80;13.83;;;8.40;99.90;;;;;;4815183;29;20045;-96
2023/04/29 05:43:15;;;;;;;23.30;13.90;;;8.80;99.90;;;;;;4815856;29;20082;-96
2023/04/29 05:45:46;;;;;;;22.02;13.20;;;8.60;99.90;;;;;;4876847;23;20144;-94
2023/04/29 05:48:12;;;;;;;26.05;13.85;;;8.60;99.90;;;;;;4852664;29;20068;-96
2023/04/29 05:50:38;;;;;;;29.55;12.68;;;8.70;99.90;;;;;;4856392;29;20524;-96
2023/04/29 05:53:04;;;;;;;23.80;13.05;;;8.80;99.90;;;;;;4849292;29;20053;-96
2023/04/29 05:55:30;;;;;;;18.30;12.43;;;8.80;99.90;;;;;;4851448;29;20053;-94
2023/04/29 05:57:56;;;;;;;24.17;12.40;;;8.90;99.90;;;;;;4874053;29;20036;-95
2023/04/29 06:00:23;;;;;;;20.23;11.68;;;8.50;99.90;;;;;;4869973;29;20056;-96
2023/04/29 06:02:56;;;;;;;23.77;12.52;;;9.00;99.90;;;;;;4860384;29;20774;-95
2023/04/29 06:05:25;;;;;;;20.58;12.63;;;9.00;99.90;;;;;;4855719;29;20115;-96
2023/04/29 06:07:51;;;;;;;21.70;12.23;;;9.30;99.90;;;;;;4868997;29;20146;-95
2023/04/29 06:10:37;;;;;;;21.30;12.60;;;9.20;99.90;;;;;;4871265;29;20068;-96
2023/04/29 06:13:03;;;;;;;20.27;10.55;;;9.30;99.90;;;;;;4873150;29;20049;-96
2023/04/29 06:15:32;;;;;;;23.00;11.65;;;9.40;99.90;;;;;;4859748;29;20068;-96
2023/04/29 06:17:59;;;;;;;16.23;10.73;;;9.40;99.90;;;;;;4865291;29;20044;-96
2023/04/29 06:20:26;;;;;;;19.42;11.45;;;9.50;99.90;;;;;;4855095;29;20075;-96
2023/04/29 06:22:51;;;;;;;22.83;10.65;;;9.50;99.90;;;;;;4859369;29;20057;-95
2023/04/29 06:25:17;;;;;;;21.83;10.88;;;9.50;99.90;;;;;;4862654;29;20060;-96
2023/04/29 06:27:43;;;;;;;19.80;11.18;;;9.60;99.90;;;;;;4850294;29;20049;-96
2023/04/29 06:30:34;;;;;;;23.95;11.98;;;9.60;99.90;;;;;;4850067;29;20507;-95
2023/04/29 06:33:00;;;;;;;18.13;9.32;;;9.30;99.90;;;;;;4843011;29;20121;-96
2023/04/29 06:35:26;;;;;;;19.95;10.43;;;9.70;99.90;;;;;;4849301;29;20048;-95
2023/04/29 06:37:52;;;;;;;20.08;9.77;;;9.70;99.90;;;;;;4856429;29;20045;-95
2023/04/29 06:40:18;;;;;;;21.48;9.40;;;9.70;99.90;;;;;;4859329;29;20532;-95
2023/04/29 06:42:44;;;;;;;19.33;10.50;;;9.80;99.90;;;;;;4852579;29;20454;-95
2023/04/29 06:45:11;;;;;;;19.05;10.02;;;9.80;99.90;;;;;;4848471;29;20056;-96
2023/04/29 06:47:37;;;;;;;18.10;10.10;;;9.80;99.90;;;;;;4849705;29;20085;-96
2023/04/29 06:50:03;;;;;;;16.30;9.52;;;9.20;99.90;;;;;;4855949;29;20053;-96
2023/04/29 06:52:30;;;;;;;16.83;9.25;;;9.90;99.90;;;;;;4878211;29;20041;-96
2023/04/29 06:55:02;;;;;;;14.05;8.88;;;10.00;99.90;;;;;;4851239;29;20084;-96
2023/04/29 06:57:28;;;;;;;14.63;8.45;;;10.00;99.90;;;;;;4858637;29;20091;-96
2023/04/29 06:59:56;;;;;;;14.50;8.52;;;10.10;99.90;;;;;;4853619;29;20061;-96
2023/04/29 07:02:24;;;;;;;15.73;9.32;;;10.10;99.90;;;;;;4852934;29;20081;-96
2023/04/29 07:04:51;;;;;;;15.52;9.40;;;10.20;99.90;;;;;;4846193;29;20053;-96
2023/04/29 07:07:17;;;;;;;12.75;8.23;;;10.20;99.90;;;;;;4850231;29;20508;-96
2023/04/29 07:09:43;;;;;;;18.08;9.00;;;10.40;99.90;;;;;;4867131;29;20082;-96
2023/04/29 07:12:09;;;;;;;18.90;9.68;;;10.30;99.90;;;;;;4866178;29;20053;-96
2023/04/29 07:14:36;;;;;;;14.13;9.10;;;10.30;99.90;;;;;;4859148;29;20387;-96
2023/04/29 07:17:04;;;;;;;20.30;9.68;;;10.40;99.90;;;;;;4852463;29;20075;-95
2023/04/29 07:19:30;;;;;;;17.60;9.15;;;10.60;99.90;;;;;;4861149;29;20093;-95
2023/04/29 07:21:56;;;;;;;15.25;9.32;;;10.50;99.90;;;;;;4861406;29;20045;-96
2023/04/29 07:24:23;;;;;;;14.20;8.65;;;10.60;99.90;;;;;;4841316;29;20049;-96
2023/04/29 07:26:49;;;;;;;14.93;9.02;;;10.70;99.90;;;;;;4848817;29;20040;-96
2023/04/29 07:29:15;;;;;;;13.88;8.43;;;10.40;99.90;;;;;;4849315;29;20084;-95
2023/04/29 07:31:41;;;;;;;13.35;7.88;;;10.80;99.90;;;;;;4855349;29;20093;-95
2023/04/29 07:34:06;;;;;;;18.00;7.78;;;10.80;99.90;;;;;;4865444;29;20447;-93
2023/04/29 07:36:40;;;;;;;20.17;8.90;;;10.90;99.90;;;;;;4852079;29;20140;-95
2023/04/29 07:39:05;;;;;;;13.27;7.15;;;11.00;99.90;;;;;;4848158;29;20037;-93
2023/04/29 07:41:31;;;;;;;14.80;7.13;;;11.00;99.90;;;;;;4855269;29;20501;-94
2023/04/29 07:43:59;;;;;;;13.05;6.38;;;11.10;99.90;;;;;;4851332;29;20490;-96
2023/04/29 07:46:27;;;;;;;11.35;5.90;;;10.70;99.90;;;;;;4844465;29;20058;-96
2023/04/29 07:48:53;;;;;;;16.92;6.13;;;11.10;99.90;;;;;;4850411;29;20110;-96
2023/04/29 07:51:19;;;;;;;14.77;6.72;;;11.10;99.90;;;;;;4840720;29;20073;-96
2023/04/29 07:53:47;;;;;;;18.95;7.03;;;11.20;99.90;;;;;;4847531;29;20507;-96
2023/04/29 07:56:13;;;;;;;15.27;6.75;;;11.20;99.90;;;;;;4850735;29;20129;-96
2023/04/29 07:58:39;;;;;;;12.20;6.80;;;11.30;99.90;;;;;;4848492;29;20094;-95
2023/04/29 08:01:06;;;;;;;14.90;6.55;;;11.30;99.90;;;;;;4843491;29;20050;-95
2023/04/29 08:03:32;;;;;;;14.00;6.72;;;11.10;99.90;;;;;;4846888;29;20514;-96
2023/04/29 08:06:03;;;;;;;16.33;6.20;;;11.40;99.90;;;;;;4842898;29;20061;-94
2023/04/29 08:08:31;;;;;;;12.55;6.35;;;11.50;99.90;;;;;;4848684;29;20050;-94
2023/04/29 08:10:57;;;;;;;12.88;6.57;;;11.50;99.90;;;;;;4859349;29;20417;-95
2023/04/29 08:13:24;;;;;;;17.00;6.38;;;11.50;99.90;;;;;;4853953;29;20077;-96
2023/04/29 08:16:08;;;;;;;16.50;6.60;;;11.50;99.90;;;;;;4871667;29;20106;-95
2023/04/29 08:18:37;;;;;;;15.52;6.15;;;11.50;99.90;;;;;;4859318;29;20049;-95
2023/04/29 08:21:03;;;;;;;15.20;6.97;;;11.60;99.90;;;;;;4841958;29;20049;-94
2023/04/29 08:23:29;;;;;;;12.35;6.55;;;11.60;99.90;;;;;;4858016;29;20548;-93
2023/04/29 08:25:56;;;;;;;15.40;6.93;;;11.70;99.90;;;;;;4846595;29;20069;-95
2023/04/29 08:28:22;;;;;;;16.23;7.78;;;11.50;99.90;;;;;;4846030;29;20034;-95
2023/04/29 08:30:48;;;;;;;15.55;7.00;;;11.70;99.90;;;;;;4850629;29;20117;-95
2023/04/29 08:33:14;;;;;;;21.13;7.47;;;11.80;99.90;;;;;;4845450;29;20056;-95
2023/04/29 08:35:40;;;;;;;16.80;7.40;;;11.80;99.90;;;;;;4868518;29;20053;-96
2023/04/29 08:38:08;;;;;;;18.00;6.93;;;11.90;99.90;;;;;;4857873;29;20051;-96
2023/04/29 08:40:42;;;;;;;15.90;7.07;;;11.90;99.90;;;;;;4846102;29;20053;-96
2023/04/29 08:43:11;;;;;;;15.00;6.68;;;11.90;99.90;;;;;;4856893;29;20033;-96
2023/04/29 08:45:41;;;;;;;14.43;6.57;;;11.80;99.90;;;;;;4872036;29;20049;-95
2023/04/29 08:48:07;;;;;;;18.55;7.47;;;12.10;99.90;;;;;;4866956;29;20558;-96
2023/04/29 08:50:40;;;;;;;13.10;6.72;;;12.00;99.90;;;;;;4864073;29;20505;-95
2023/04/29 08:53:06;;;;;;;14.67;6.67;;;12.10;99.90;;;;;;4850906;29;20052;-94
2023/04/29 08:55:36;;;;;;;13.88;6.13;;;12.10;99.90;;;;;;4858463;29;20061;-96
2023/04/29 08:58:02;;;;;;;12.68;6.20;;;12.20;99.90;;;;;;4846925;29;20047;-95
2023/04/29 09:00:31;;;;;;;13.82;5.95;;;12.20;99.90;;;;;;4864187;29;20052;-94
2023/04/29 09:02:59;;;;;;;17.77;5.25;;;12.30;99.90;;;;;;4856991;29;20104;-94
2023/04/29 09:05:25;;;;;;;11.50;5.22;;;12.30;99.90;;;;;;4857055;29;20199;-95
2023/04/29 09:07:52;;;;;;;9.70;5.35;;;12.50;99.90;;;;;;4856427;29;20049;-89
2023/04/29 09:10:21;;;;;;;10.77;5.32;;;12.50;99.90;;;;;;4845791;29;20139;-94
2023/04/29 09:12:47;;;;;;;11.90;4.85;;;12.70;99.90;;;;;;4861106;29;20056;-94
2023/04/29 09:15:16;;;;;;;9.63;4.68;;;12.70;99.90;;;;;;4863712;29;20049;-93
2023/04/29 09:17:45;;;;;;;17.98;4.57;;;12.70;99.90;;;;;;4855630;29;20099;-90
2023/04/29 09:20:27;;;;;;;8.75;4.05;;;12.70;99.90;;;;;;4860706;29;20057;-92
2023/04/29 09:22:56;;;;;;;8.10;4.47;;;12.70;99.90;;;;;;4852541;29;20052;-94
2023/04/29 09:25:22;;;;;;;7.63;3.53;;;12.70;99.90;;;;;;4846926;29;20080;-94
2023/04/29 09:27:48;;;;;;;14.18;4.25;;;12.80;99.90;;;;;;4864897;29;20041;-96
2023/04/29 09:30:18;;;;;;;10.32;5.03;;;12.80;99.90;;;;;;4847497;29;20168;-96
2023/04/29 09:33:12;;;;;;;11.63;5.05;;;12.90;99.90;;;;;;4860783;29;20045;-96
2023/04/29 09:35:51;;;;;;;9.52;4.55;;;12.80;99.90;;;;;;4846783;29;20063;-95
2023/04/29 09:38:17;;;;;;;12.88;5.25;;;12.80;99.90;;;;;;4846455;29;20045;-96
2023/04/29 09:40:43;;;;;;;12.10;5.10;;;12.90;99.90;;;;;;4856697;29;20045;-95
2023/04/29 09:43:17;;;;;;;9.77;4.28;;;12.90;99.90;;;;;;4855136;29;20029;-96
2023/04/29 09:45:50;;;;;;;10.40;5.30;;;13.00;99.90;;;;;;4854620;29;20103;-96
2023/04/29 09:48:19;;;;;;;14.77;5.15;;;13.00;99.90;;;;;;4859444;29;20052;-96
2023/04/29 09:51:00;;;;;;;12.20;5.63;;;13.10;99.90;;;;;;4847634;29;20072;-96
2023/04/29 09:53:28;;;;;;;8.18;4.82;;;13.10;99.90;;;;;;4861076;29;20052;-94
2023/04/29 09:56:00;;;;;;;9.63;5.43;;;13.10;99.90;;;;;;4847148;29;20068;-96
2023/04/29 09:58:30;;;;;;;10.13;4.80;;;13.70;99.90;;;;;;4862169;29;20056;-95
2023/04/29 10:01:06;;;;;;;8.10;4.30;;;13.10;99.90;;;;;;4829877;29;20502;-96
2023/04/29 10:03:36;;;;;;;16.30;8.20;;;13.20;99.90;;;;;;4857298;29;20051;-96
2023/04/29 10:06:04;;;;;;;13.82;5.28;;;13.30;99.90;;;;;;4846427;29;20081;-95
2023/04/29 10:08:31;;;;;;;13.82;5.22;;;13.30;99.90;;;;;;4848461;29;20220;-96
2023/04/29 10:11:00;;;;;;;16.73;5.13;;;13.40;99.90;;;;;;4850378;29;20052;-96
2023/04/29 10:13:31;;;;;;;13.80;5.40;;;13.40;99.90;;;;;;4865774;29;20045;-96
2023/04/29 10:16:07;;;;;;;15.05;5.72;;;13.40;99.90;;;;;;4846549;29;20054;-96
2023/04/29 10:18:39;;;;;;;15.50;6.25;;;13.30;99.90;;;;;;4845014;29;20053;-96
2023/04/29 10:21:08;;;;;;;13.43;5.55;;;13.30;99.90;;;;;;4865144;29;20105;-95
2023/04/29 10:23:36;;;;;;;13.00;6.47;;;13.30;99.90;;;;;;4860999;29;20052;-96
2023/04/29 10:26:02;;;;;;;12.85;6.55;;;13.40;99.90;;;;;;4845663;29;20076;-95
2023/04/29 10:28:31;;;;;;;14.20;6.20;;;13.40;99.90;;;;;;4862273;29;20132;-95
2023/04/29 10:31:01;;;;;;;18.10;5.97;;;13.30;99.90;;;;;;4844794;29;20128;-96
2023/04/29 10:33:32;;;;;;;13.85;5.05;;;13.40;99.90;;;;;;4841653;29;20037;-95
2023/04/29 10:35:59;;;;;;;11.27;4.85;;;13.40;99.90;;;;;;4838921;29;20045;-96
2023/04/29 10:38:28;;;;;;;8.98;4.30;;;13.40;99.90;;;;;;4844420;29;20041;-95
2023/04/29 10:41:01;;;;;;;10.00;3.78;;;13.40;99.90;;;;;;4844934;29;20045;-96
2023/04/29 10:43:27;;;;;;;8.32;3.17;;;13.50;99.90;;;;;;4854676;29;20045;-96
2023/04/29 10:46:15;;;;;;;7.82;2.83;;;13.50;99.90;;;;;;4861490;29;20428;-95
2023/04/29 10:48:46;;;;;;;9.27;2.60;;;13.50;99.90;;;;;;4856594;29;20059;-96
2023/04/29 10:51:13;;;;;;;7.13;2.25;;;13.60;99.90;;;;;;4879989;29;20061;-96
2023/04/29 10:54:25;;;;;;;;;;;;;;;;;;;;;
2023/04/29 10:56:57;;;;;;;7.13;2.25;;;13.70;99.90;;;;;;4858522;29;20069;-96
2023/04/29 10:59:31;;;;;;;5.20;1.85;;;13.70;99.90;;;;;;4851171;29;20528;-95
2023/04/29 11:01:58;;;;;;;6.10;1.73;;;13.70;99.90;;;;;;4855168;29;20090;-96
2023/04/29 11:04:32;;;;;;;4.63;1.77;;;13.70;99.90;;;;;;4869488;29;20049;-96
2023/04/29 11:07:07;;;;;;;4.05;1.40;;;13.80;99.90;;;;;;4872852;29;20037;-96
2023/04/29 11:09:57;;;;;;;4.72;1.63;;;13.80;99.90;;;;;;4837732;29;20058;-96
2023/04/29 11:12:29;;;;;;;4.47;1.20;;;13.80;99.90;;;;;;4799050;29;20156;-96
2023/04/29 11:15:26;;;;;;;6.85;1.42;;;14.00;99.90;;;;;;4836240;29;20077;-96
2023/04/29 11:17:49;;;;;;;5.03;1.60;;;14.00;99.90;;;;;;4851858;29;20067;-96
2023/04/29 11:20:17;;;;;;;5.57;1.40;;;14.00;99.90;;;;;;4854692;29;20045;-96
2023/04/29 11:23:09;;;;;;;6.15;2.58;;;14.00;99.90;;;;;;4866139;29;20101;-96
2023/04/29 11:25:38;;;;;;;5.82;2.20;;;14.10;99.90;;;;;;4848578;29;20054;-95
2023/04/29 11:28:06;;;;;;;4.72;1.75;;;14.10;99.90;;;;;;4836812;29;20091;-96
2023/04/29 11:30:32;;;;;;;7.03;2.05;;;14.10;99.90;;;;;;4852728;29;20045;-96
2023/04/29 11:32:58;;;;;;;7.00;2.40;;;14.10;99.90;;;;;;4847405;29;20475;-96
2023/04/29 11:35:24;;;;;;;6.55;1.80;;;14.20;99.90;;;;;;4847188;29;20041;-95
2023/04/29 11:37:50;;;;;;;6.82;1.95;;;14.20;99.90;;;;;;4845065;29;20041;-95
2023/04/29 11:40:16;;;;;;;6.93;2.20;;;14.30;99.90;;;;;;4842126;29;20060;-96
2023/04/29 11:42:45;;;;;;;8.18;1.80;;;14.20;99.90;;;;;;4857388;29;20128;-95
2023/04/29 11:45:11;;;;;;;6.95;2.08;;;14.20;99.90;;;;;;4845306;29;20137;-96
2023/04/29 11:47:41;;;;;;;7.75;2.20;;;14.10;99.90;;;;;;4854068;29;20053;-94
2023/04/29 11:50:09;;;;;;;8.35;2.45;;;14.10;99.90;;;;;;4849636;29;20136;-94
2023/04/29 11:52:36;;;;;;;5.28;2.10;;;14.10;99.90;;;;;;4863441;29;20037;-94
2023/04/29 11:55:05;;;;;;;4.75;2.00;;;14.10;99.90;;;;;;4852322;29;20495;-89
2023/04/29 11:58:30;;;;;;;6.45;1.70;;;14.00;99.90;;;;;;4859852;29;20030;-97
2023/04/29 12:01:03;;;;;;;4.97;1.90;;;14.10;99.90;;;;;;4864473;29;20053;-96
2023/04/29 12:03:52;;;;;;;6.55;2.15;;;14.10;99.90;;;;;;4965214;23;20138;-96
2023/04/29 12:06:40;;;;;;;;;;;;;;;;;;;;;
2023/04/29 12:09:22;;;;;;;8.07;3.20;;;14.20;99.90;;;;;;4891929;29;20059;-96
2023/04/29 12:11:49;;;;;;;7.28;2.58;;;14.00;99.90;;;;;;4872901;29;20072;-96
2023/04/29 12:14:25;;;;;;;8.15;2.55;;;14.00;99.90;;;;;;4879749;29;20032;-96
2023/04/29 12:17:07;;;;;;;;;;;;;;;;;;;;;
2023/04/29 12:19:42;;;;;;;5.63;2.05;;;14.10;99.90;;;;;;4978762;23;20104;-96
2023/04/29 12:22:21;;;;;;;8.07;1.70;;;14.10;99.90;;;;;;4879477;29;20041;-96
2023/04/29 12:29:05;;;;;;;4.00;1.40;;;14.00;99.90;;;;;;5371557;23;20085;31
2023/04/29 12:31:33;;;;;;;2.85;0.95;;;14.10;99.90;;;;;;4869184;29;20057;-96
2023/04/29 12:33:59;;;;;;;4.60;1.25;;;14.10;99.90;;;;;;4865216;29;20049;-94
2023/04/29 12:36:25;;;;;;;3.42;1.20;;;14.10;99.90;;;;;;4872817;29;20063;-95
2023/04/29 12:38:53;;;;;;;7.85;1.50;;;14.00;99.00;;;;;;4860751;29;20066;-94
2023/04/29 12:41:20;;;;;;;3.78;1.38;;;14.00;98.90;;;;;;4871566;29;20135;-96
2023/04/29 12:43:48;;;;;;;4.90;1.90;;;14.00;99.20;;;;;;4873406;29;20056;-96
2023/04/29 12:46:15;;;;;;;3.42;1.15;;;14.10;99.80;;;;;;4862825;29;20108;-96
2023/04/29 12:48:42;;;;;;;4.22;1.10;;;14.10;99.90;;;;;;4859171;29;20051;-96
2023/04/29 12:51:12;;;;;;;7.47;1.48;;;14.10;99.90;;;;;;4867302;29;20072;-96
2023/04/29 12:53:38;;;;;;;4.28;1.17;;;14.20;99.70;;;;;;4864481;29;20053;-94
2023/04/29 12:56:05;;;;;;;2.13;0.90;;;14.30;99.90;;;;;;4865412;29;20124;-95
2023/04/29 12:58:34;;;;;;;4.68;0.90;;;14.40;99.90;;;;;;4865807;29;20060;-95
2023/04/29 13:01:00;;;;;;;6.13;1.33;;;14.50;99.90;;;;;;4873087;29;20048;-95
2023/04/29 13:03:32;;;;;;;4.38;1.23;;;14.50;99.90;;;;;;4871283;29;20521;-96
2023/04/29 13:05:58;;;;;;;5.43;1.60;;;14.40;99.90;;;;;;4862515;29;20631;-94
2023/04/29 13:08:24;;;;;;;4.45;1.80;;;14.40;99.90;;;;;;4861034;29;20123;-95
2023/04/29 13:10:50;;;;;;;6.20;1.83;;;14.50;99.90;;;;;;4877052;29;20091;-96
2023/04/29 13:13:16;;;;;;;7.10;2.05;;;14.40;99.90;;;;;;4867162;29;20045;-94
2023/04/29 13:15:41;;;;;;;4.32;2.05;;;14.30;99.90;;;;;;4865196;29;20067;-94
2023/04/29 13:18:07;;;;;;;7.43;3.00;;;14.30;99.90;;;;;;4864754;29;20628;-96
2023/04/29 13:20:34;;;;;;;5.55;2.42;;;14.30;99.90;;;;;;4867937;29;20450;-95
2023/04/29 13:22:59;;;;;;;10.32;2.88;;;14.40;99.90;;;;;;4865409;29;20118;-95
2023/04/29 13:25:25;;;;;;;6.28;3.00;;;14.40;99.90;;;;;;4869360;29;20067;-95
2023/04/29 13:27:51;;;;;;;8.27;3.30;;;14.40;99.90;;;;;;4864536;29;20057;-95
2023/04/29 13:30:17;;;;;;;8.57;3.78;;;14.30;99.90;;;;;;4874291;29;20441;-95
2023/04/29 13:32:43;;;;;;;8.48;4.30;;;14.20;99.90;;;;;;4867623;29;20083;-96
2023/04/29 13:35:09;;;;;;;7.90;4.00;;;14.00;99.90;;;;;;4882537;29;20047;-95
2023/04/29 13:37:35;;;;;;;10.75;4.93;;;14.00;99.90;;;;;;4875702;29;20044;-94
2023/04/29 13:40:03;;;;;;;9.85;4.40;;;13.90;99.90;;;;;;4871099;29;20044;-96
2023/04/29 13:42:29;;;;;;;15.32;5.05;;;14.00;99.90;;;;;;4883683;29;20071;-96
2023/04/29 13:45:09;;;;;;;;;;;;;;;;;;;;;
2023/04/29 13:47:49;;;;;;;13.88;6.05;;;14.00;99.90;;;;;;4903340;29;20156;-96
2023/04/29 13:50:19;;;;;;;10.23;5.35;;;13.70;99.90;;;;;;4873071;29;20104;-96
2023/04/29 13:53:18;;;;;;;10.23;5.40;;;13.80;99.90;;;;;;4874345;29;20139;-96
2023/04/29 13:55:46;;;;;;;12.25;5.53;;;13.80;99.90;;;;;;4889040;29;20052;-96
2023/04/29 13:58:12;;;;;;;9.73;5.28;;;13.50;99.90;;;;;;4871470;29;20055;-96
2023/04/29 14:00:38;;;;;;;7.63;4.63;;;13.90;99.90;;;;;;4891506;28;20127;-96
2023/04/29 14:03:06;;;;;;;7.93;4.10;;;14.00;99.90;;;;;;4888288;29;20048;-96
2023/04/29 14:05:32;;;;;;;8.77;4.32;;;14.20;99.90;;;;;;4877358;29;20115;-96
2023/04/29 14:08:03;;;;;;;7.55;3.63;;;14.30;99.90;;;;;;4889604;29;20076;-96
2023/04/29 14:11:04;;;;;;;6.80;3.75;;;14.30;99.90;;;;;;4868309;29;20052;-96
2023/04/29 14:13:30;;;;;;;7.20;4.07;;;14.40;99.90;;;;;;4882354;29;20645;-92
2023/04/29 14:15:57;;;;;;;11.27;5.20;;;14.40;99.90;;;;;;4887519;29;20080;-91
2023/04/29 14:18:26;;;;;;;7.47;4.22;;;14.30;99.90;;;;;;4869056;29;20051;-92
2023/04/29 14:20:53;;;;;;;9.85;3.90;;;14.20;99.90;;;;;;4868334;29;20060;-93
2023/04/29 14:23:22;;;;;;;10.77;3.80;;;14.10;99.90;;;;;;4858703;29;20075;-94
2023/04/29 14:25:47;;;;;;;9.75;5.90;;;13.80;99.90;;;;;;4858893;29;20085;-93
2023/04/29 14:28:13;;;;;;;6.30;4.70;;;13.70;99.90;;;;;;4885593;29;20040;-93
2023/04/29 14:30:40;;;;;;;7.35;3.75;;;13.70;99.90;;;;;;4871682;29;20052;-92
2023/04/29 14:33:06;;;;;;;7.68;3.97;;;13.70;99.90;;;;;;4870616;29;20060;-92
2023/04/29 14:35:32;;;;;;;7.40;3.70;;;13.60;99.90;;;;;;4875668;29;20060;-92
2023/04/29 14:37:58;;;;;;;9.50;4.03;;;13.30;99.90;;;;;;4870769;29;20033;-91
2023/04/29 14:40:24;;;;;;;8.10;3.88;;;13.20;99.90;;;;;;4866901;29;20545;-93
2023/04/29 14:42:56;;;;;;;8.07;3.90;;;13.20;99.90;;;;;;4879719;29;20032;-93
2023/04/29 14:45:21;;;;;;;8.18;4.05;;;13.20;99.90;;;;;;4879286;29;20064;-92
2023/04/29 14:47:47;;;;;;;9.63;3.85;;;13.20;99.90;;;;;;4878560;29;20056;-92
2023/04/29 14:50:13;;;;;;;6.38;3.08;;;13.20;99.90;;;;;;4882043;29;20052;-92
2023/04/29 14:52:39;;;;;;;7.88;2.55;;;13.20;99.90;;;;;;4867207;29;20044;-93
2023/04/29 14:55:05;;;;;;;9.70;2.55;;;13.20;99.90;;;;;;4867303;29;20485;-93
2023/04/29 14:57:30;;;;;;;4.50;2.10;;;13.10;99.90;;;;;;4875665;29;20137;-94
2023/04/29 14:59:56;;;;;;;5.15;2.13;;;13.10;99.90;;;;;;4872282;29;20049;-94
2023/04/29 15:02:25;;;;;;;5.10;2.25;;;13.00;99.90;;;;;;4894819;29;20204;-93
2023/04/29 15:04:51;;;;;;;5.07;2.00;;;13.10;99.90;;;;;;4866470;29;20048;-93
2023/04/29 15:07:17;;;;;;;6.03;2.22;;;13.20;99.90;;;;;;4863708;29;20132;-93
2023/04/29 15:09:43;;;;;;;4.43;1.95;;;13.30;99.90;;;;;;4860355;29;20104;-93
2023/04/29 15:12:09;;;;;;;5.78;2.42;;;13.20;99.90;;;;;;4857968;29;20053;-94
2023/04/29 15:14:35;;;;;;;6.68;2.40;;;13.20;99.90;;;;;;4878202;29;20045;-93
2023/04/29 15:17:01;;;;;;;6.88;2.30;;;13.20;99.90;;;;;;4864970;29;20091;-93
2023/04/29 15:19:26;;;;;;;5.28;2.63;;;13.30;99.90;;;;;;4867167;29;20076;-94
2023/04/29 15:21:52;;;;;;;6.75;2.53;;;13.20;99.90;;;;;;4866670;29;20052;-93
2023/04/29 15:24:18;;;;;;;4.07;2.40;;;13.10;99.90;;;;;;4866604;29;20131;-93
2023/04/29 15:26:45;;;;;;;4.88;2.25;;;13.00;99.90;;;;;;4879417;29;20692;-96
2023/04/29 15:29:14;;;;;;;6.53;2.63;;;12.90;99.90;;;;;;4875532;29;20084;-92
2023/04/29 15:31:40;;;;;;;7.80;2.70;;;13.00;99.90;;;;;;4870432;29;20056;-94
2023/04/29 15:34:06;;;;;;;8.32;3.05;;;13.10;99.90;;;;;;4870449;29;20045;-96
2023/04/29 15:36:33;;;;;;;4.10;2.30;;;13.20;99.90;;;;;;4869236;29;20111;-95
2023/04/29 15:38:59;;;;;;;5.78;2.58;;;13.10;99.90;;;;;;4876814;29;20178;-95
2023/04/29 15:41:27;;;;;;;4.72;2.58;;;13.10;99.90;;;;;;4863364;29;20151;-96
2023/04/29 15:43:55;;;;;;;4.85;2.30;;;13.00;99.90;;;;;;4863771;29;20124;-95
2023/04/29 15:46:21;;;;;;;5.45;2.30;;;12.90;99.90;;;;;;4866039;29;20053;-94